sensor_id;sensor_type;location;lat;lon;timestamp;pressure;altitude;pressure_sealevel;temperature;humidity
73842;BME280;62184;52.006;5.924;2023-12-14T00:01:34;100125.81;;;10.94;85.36
73842;BME280;62184;52.006;5.924;2023-12-14T00:04:00;100131.81;;;11.01;85.36
73842;BME280;62184;52.006;5.924;2023-12-14T00:06:29;100140.41;;;11.09;85.61
73842;BME280;62184;52.006;5.924;2023-12-14T00:08:56;100141.22;;;11.11;85.64
73842;BME280;62184;52.006;5.924;2023-12-14T00:11:22;100148.59;;;11.04;85.68
73842;BME280;62184;52.006;5.924;2023-12-14T00:13:49;100153.06;;;11.04;85.69
73842;BME280;62184;52.006;5.924;2023-12-14T00:16:15;100161.81;;;11.07;85.66
73842;BME280;62184;52.006;5.924;2023-12-14T00:18:42;100162.06;;;11.01;85.41
73842;BME280;62184;52.006;5.924;2023-12-14T00:21:08;100162.94;;;11.02;85.70
73842;BME280;62184;52.006;5.924;2023-12-14T00:23:37;100166.50;;;11.02;85.61
73842;BME280;62184;52.006;5.924;2023-12-14T00:26:03;100169.41;;;10.96;85.39
73842;BME280;62184;52.006;5.924;2023-12-14T00:28:30;100181.94;;;10.94;85.54
73842;BME280;62184;52.006;5.924;2023-12-14T00:30:56;100180.19;;;10.93;85.45
73842;BME280;62184;52.006;5.924;2023-12-14T00:33:23;100190.97;;;10.90;85.64
73842;BME280;62184;52.006;5.924;2023-12-14T00:35:50;100199.13;;;10.87;85.39
73842;BME280;62184;52.006;5.924;2023-12-14T00:38:17;100208.16;;;10.83;85.52
73842;BME280;62184;52.006;5.924;2023-12-14T00:40:46;100210.72;;;10.86;85.36
73842;BME280;62184;52.006;5.924;2023-12-14T00:43:12;100217.00;;;10.85;85.74
73842;BME280;62184;52.006;5.924;2023-12-14T00:45:39;100222.56;;;10.79;85.50
73842;BME280;62184;52.006;5.924;2023-12-14T00:48:05;100222.66;;;10.76;85.60
73842;BME280;62184;52.006;5.924;2023-12-14T00:50:32;100223.72;;;10.70;85.77
73842;BME280;62184;52.006;5.924;2023-12-14T00:52:58;100230.09;;;10.66;85.35
73842;BME280;62184;52.006;5.924;2023-12-14T00:55:24;100234.56;;;10.66;85.20
73842;BME280;62184;52.006;5.924;2023-12-14T00:57:53;100235.47;;;10.65;85.30
73842;BME280;62184;52.006;5.924;2023-12-14T01:00:20;100241.81;;;10.62;85.41
73842;BME280;62184;52.006;5.924;2023-12-14T01:02:46;100244.53;;;10.61;85.19
73842;BME280;62184;52.006;5.924;2023-12-14T01:05:13;100263.94;;;10.66;85.41
73842;BME280;62184;52.006;5.924;2023-12-14T01:07:40;100261.00;;;10.73;85.50
73842;BME280;62184;52.006;5.924;2023-12-14T01:10:08;100263.59;;;10.76;85.41
73842;BME280;62184;52.006;5.924;2023-12-14T01:12:34;100263.44;;;10.81;85.34
73842;BME280;62184;52.006;5.924;2023-12-14T01:15:05;100258.16;;;10.80;85.53
73842;BME280;62184;52.006;5.924;2023-12-14T01:17:32;100261.84;;;10.75;85.44
73842;BME280;62184;52.006;5.924;2023-12-14T01:19:59;100263.66;;;10.75;85.49
73842;BME280;62184;52.006;5.924;2023-12-14T01:22:25;100266.56;;;10.67;85.52
73842;BME280;62184;52.006;5.924;2023-12-14T01:24:52;100274.63;;;10.66;85.30
73842;BME280;62184;52.006;5.924;2023-12-14T01:27:18;100278.22;;;10.65;85.37
73842;BME280;62184;52.006;5.924;2023-12-14T01:29:44;100285.25;;;10.67;85.33
73842;BME280;62184;52.006;5.924;2023-12-14T01:32:13;100289.59;;;10.71;85.47
73842;BME280;62184;52.006;5.924;2023-12-14T01:34:40;100299.22;;;10.77;85.32
73842;BME280;62184;52.006;5.924;2023-12-14T01:37:06;100304.59;;;10.75;85.51
73842;BME280;62184;52.006;5.924;2023-12-14T01:39:33;100314.34;;;10.76;85.40
73842;BME280;62184;52.006;5.924;2023-12-14T01:41:59;100315.22;;;10.77;85.38
73842;BME280;62184;52.006;5.924;2023-12-14T01:44:25;100313.53;;;10.74;85.23
73842;BME280;62184;52.006;5.924;2023-12-14T01:46:52;100318.88;;;10.73;85.40
73842;BME280;62184;52.006;5.924;2023-12-14T01:49:21;100324.13;;;10.77;85.24
73842;BME280;62184;52.006;5.924;2023-12-14T01:51:48;100337.53;;;10.76;85.51
73842;BME280;62184;52.006;5.924;2023-12-14T01:54:15;100334.03;;;10.72;85.28
73842;BME280;62184;52.006;5.924;2023-12-14T01:56:41;100337.72;;;10.70;85.47
73842;BME280;62184;52.006;5.924;2023-12-14T01:59:07;100344.88;;;10.68;85.27
73842;BME280;62184;52.006;5.924;2023-12-14T02:01:39;100343.84;;;10.72;85.10
73842;BME280;62184;52.006;5.924;2023-12-14T02:04:08;100343.91;;;10.70;85.11
73842;BME280;62184;52.006;5.924;2023-12-14T02:06:38;100349.19;;;10.72;85.43
73842;BME280;62184;52.006;5.924;2023-12-14T02:09:05;100349.31;;;10.69;85.41
73842;BME280;62184;52.006;5.924;2023-12-14T02:11:32;100360.00;;;10.69;85.55
73842;BME280;62184;52.006;5.924;2023-12-14T02:14:03;100364.38;;;10.71;85.25
73842;BME280;62184;52.006;5.924;2023-12-14T02:16:30;100359.03;;;10.71;85.46
73842;BME280;62184;52.006;5.924;2023-12-14T02:18:56;100368.66;;;10.77;85.50
73842;BME280;62184;52.006;5.924;2023-12-14T02:21:22;100373.03;;;10.80;85.30
73842;BME280;62184;52.006;5.924;2023-12-14T02:23:51;100378.25;;;10.83;85.47
73842;BME280;62184;52.006;5.924;2023-12-14T02:26:18;100384.25;;;10.89;85.38
73842;BME280;62184;52.006;5.924;2023-12-14T02:28:44;100391.25;;;10.93;85.38
73842;BME280;62184;52.006;5.924;2023-12-14T02:31:11;100391.00;;;11.01;85.53
73842;BME280;62184;52.006;5.924;2023-12-14T02:33:38;100400.00;;;10.98;85.62
73842;BME280;62184;52.006;5.924;2023-12-14T02:36:05;100405.56;;;10.92;85.48
73842;BME280;62184;52.006;5.924;2023-12-14T02:38:32;100413.56;;;10.92;85.52
73842;BME280;62184;52.006;5.924;2023-12-14T02:41:01;100409.09;;;10.93;85.43
73842;BME280;62184;52.006;5.924;2023-12-14T02:43:28;100412.72;;;10.90;85.42
73842;BME280;62184;52.006;5.924;2023-12-14T02:45:54;100415.53;;;10.87;85.37
73842;BME280;62184;52.006;5.924;2023-12-14T02:48:21;100412.84;;;10.87;85.33
73842;BME280;62184;52.006;5.924;2023-12-14T02:50:47;100418.28;;;10.84;85.46
73842;BME280;62184;52.006;5.924;2023-12-14T02:53:13;100427.38;;;10.78;85.57
73842;BME280;62184;52.006;5.924;2023-12-14T02:55:40;100425.72;;;10.73;85.14
73842;BME280;62184;52.006;5.924;2023-12-14T02:58:09;100425.72;;;10.73;85.11
73842;BME280;62184;52.006;5.924;2023-12-14T03:00:35;100430.97;;;10.77;85.53
73842;BME280;62184;52.006;5.924;2023-12-14T03:03:02;100443.25;;;10.83;85.26
73842;BME280;62184;52.006;5.924;2023-12-14T03:05:28;100442.13;;;10.90;85.31
73842;BME280;62184;52.006;5.924;2023-12-14T03:07:55;100442.94;;;10.92;85.51
73842;BME280;62184;52.006;5.924;2023-12-14T03:10:21;100461.63;;;10.94;85.31
73842;BME280;62184;52.006;5.924;2023-12-14T03:12:48;100458.91;;;10.95;85.63
73842;BME280;62184;52.006;5.924;2023-12-14T03:15:18;100460.69;;;10.95;85.59
73842;BME280;62184;52.006;5.924;2023-12-14T03:17:44;100464.38;;;10.91;85.45
73842;BME280;62184;52.006;5.924;2023-12-14T03:20:11;100466.34;;;10.86;85.51
73842;BME280;62184;52.006;5.924;2023-12-14T03:22:38;100469.00;;;10.86;85.61
73842;BME280;62184;52.006;5.924;2023-12-14T03:25:06;100473.44;;;10.87;85.65
73842;BME280;62184;52.006;5.924;2023-12-14T03:27:33;100471.50;;;10.90;85.78
73842;BME280;62184;52.006;5.924;2023-12-14T03:29:59;100480.19;;;10.97;85.73
73842;BME280;62184;52.006;5.924;2023-12-14T03:32:28;100472.88;;;11.03;85.89
73842;BME280;62184;52.006;5.924;2023-12-14T03:34:55;100467.41;;;11.06;85.62
73842;BME280;62184;52.006;5.924;2023-12-14T03:37:21;100477.09;;;11.10;85.79
73842;BME280;62184;52.006;5.924;2023-12-14T03:39:48;100476.22;;;11.10;85.67
73842;BME280;62184;52.006;5.924;2023-12-14T03:42:14;100478.03;;;11.09;85.54
73842;BME280;62184;52.006;5.924;2023-12-14T03:44:41;100476.34;;;11.05;85.49
73842;BME280;62184;52.006;5.924;2023-12-14T03:47:07;100479.09;;;11.04;85.64
73842;BME280;62184;52.006;5.924;2023-12-14T03:49:39;100473.94;;;10.98;85.30
73842;BME280;62184;52.006;5.924;2023-12-14T03:52:05;100490.22;;;10.90;85.36
73842;BME280;62184;52.006;5.924;2023-12-14T03:54:32;100486.75;;;10.88;85.23
73842;BME280;62184;52.006;5.924;2023-12-14T03:56:58;100487.72;;;10.86;85.40
73842;BME280;62184;52.006;5.924;2023-12-14T03:59:24;100492.13;;;10.87;85.22
73842;BME280;62184;52.006;5.924;2023-12-14T04:01:51;100498.34;;;10.87;85.18
73842;BME280;62184;52.006;5.924;2023-12-14T04:04:17;100500.72;;;10.96;85.25
73842;BME280;62184;52.006;5.924;2023-12-14T04:06:46;100501.75;;;10.92;85.33
73842;BME280;62184;52.006;5.924;2023-12-14T04:09:13;100502.56;;;10.94;85.25
73842;BME280;62184;52.006;5.924;2023-12-14T04:11:39;100509.50;;;11.00;85.51
73842;BME280;62184;52.006;5.924;2023-12-14T04:14:06;100510.19;;;11.06;85.51
73842;BME280;62184;52.006;5.924;2023-12-14T04:16:33;100519.75;;;11.13;85.26
73842;BME280;62184;52.006;5.924;2023-12-14T04:18:59;100516.16;;;11.14;85.32
73842;BME280;62184;52.006;5.924;2023-12-14T04:21:25;100518.91;;;11.13;85.55
73842;BME280;62184;52.006;5.924;2023-12-14T04:23:54;100519.81;;;11.12;85.32
73842;BME280;62184;52.006;5.924;2023-12-14T04:26:21;100518.16;;;11.08;85.26
73842;BME280;62184;52.006;5.924;2023-12-14T04:28:47;100523.66;;;11.03;85.26
73842;BME280;62184;52.006;5.924;2023-12-14T04:31:14;100520.25;;;10.98;85.46
73842;BME280;62184;52.006;5.924;2023-12-14T04:33:40;100518.59;;;10.94;85.45
73842;BME280;62184;52.006;5.924;2023-12-14T04:36:07;100524.88;;;10.93;85.34
73842;BME280;62184;52.006;5.924;2023-12-14T04:38:34;100530.41;;;10.87;85.35
73842;BME280;62184;52.006;5.924;2023-12-14T04:41:03;100538.72;;;10.78;85.20
73842;BME280;62184;52.006;5.924;2023-12-14T04:43:30;100548.69;;;10.71;85.25
73842;BME280;62184;52.006;5.924;2023-12-14T04:45:56;100557.53;;;10.72;85.30
73842;BME280;62184;52.006;5.924;2023-12-14T04:48:22;100568.06;;;10.80;85.27
73842;BME280;62184;52.006;5.924;2023-12-14T04:50:49;100575.94;;;10.83;85.27
73842;BME280;62184;52.006;5.924;2023-12-14T04:53:15;100579.47;;;10.85;85.44
73842;BME280;62184;52.006;5.924;2023-12-14T04:55:42;100580.34;;;10.85;85.28
73842;BME280;62184;52.006;5.924;2023-12-14T04:58:11;100584.75;;;10.86;85.23
73842;BME280;62184;52.006;5.924;2023-12-14T05:00:37;100589.19;;;10.87;85.27
73842;BME280;62184;52.006;5.924;2023-12-14T05:03:03;100590.94;;;10.88;85.29
73842;BME280;62184;52.006;5.924;2023-12-14T05:05:30;100592.66;;;10.89;85.31
73842;BME280;62184;52.006;5.924;2023-12-14T05:07:56;100604.31;;;10.88;85.20
73842;BME280;62184;52.006;5.924;2023-12-14T05:10:23;100613.97;;;10.92;85.25
73842;BME280;62184;52.006;5.924;2023-12-14T05:12:49;100610.19;;;10.99;84.93
73842;BME280;62184;52.006;5.924;2023-12-14T05:15:18;100627.78;;;11.06;85.20
73842;BME280;62184;52.006;5.924;2023-12-14T05:17:45;100627.69;;;11.09;84.96
73842;BME280;62184;52.006;5.924;2023-12-14T05:20:12;100637.31;;;11.15;85.25
73842;BME280;62184;52.006;5.924;2023-12-14T05:22:38;100644.38;;;11.18;85.27
73842;BME280;62184;52.006;5.924;2023-12-14T05:25:05;100637.19;;;11.20;85.16
73842;BME280;62184;52.006;5.924;2023-12-14T05:27:32;100647.84;;;11.21;85.41
73842;BME280;62184;52.006;5.924;2023-12-14T05:29:58;100649.72;;;11.18;85.21
73842;BME280;62184;52.006;5.924;2023-12-14T05:32:28;100655.22;;;11.13;85.32
73842;BME280;62184;52.006;5.924;2023-12-14T05:34:54;100656.00;;;11.16;85.27
73842;BME280;62184;52.006;5.924;2023-12-14T05:37:20;100659.53;;;11.17;85.08
73842;BME280;62184;52.006;5.924;2023-12-14T05:39:47;100663.00;;;11.21;85.21
73842;BME280;62184;52.006;5.924;2023-12-14T05:42:15;100662.91;;;11.24;85.09
73842;BME280;62184;52.006;5.924;2023-12-14T05:44:42;100668.06;;;11.30;84.90
73842;BME280;62184;52.006;5.924;2023-12-14T05:47:08;100680.59;;;11.28;85.14
73842;BME280;62184;52.006;5.924;2023-12-14T05:49:40;100688.63;;;11.28;85.10
73842;BME280;62184;52.006;5.924;2023-12-14T05:52:07;100693.22;;;11.23;85.17
73842;BME280;62184;52.006;5.924;2023-12-14T05:54:35;100705.66;;;11.24;85.00
73842;BME280;62184;52.006;5.924;2023-12-14T05:57:02;100710.94;;;11.27;85.04
73842;BME280;62184;52.006;5.924;2023-12-14T05:59:28;100713.56;;;11.28;85.17
73842;BME280;62184;52.006;5.924;2023-12-14T06:01:56;100732.41;;;11.24;85.09
73842;BME280;62184;52.006;5.924;2023-12-14T06:04:23;100728.81;;;11.25;85.09
73842;BME280;62184;52.006;5.924;2023-12-14T06:06:53;100739.44;;;11.28;84.96
73842;BME280;62184;52.006;5.924;2023-12-14T06:09:19;100732.41;;;11.24;85.08
73842;BME280;62184;52.006;5.924;2023-12-14T06:11:46;100740.56;;;11.19;85.08
73842;BME280;62184;52.006;5.924;2023-12-14T06:14:12;100739.00;;;11.12;85.22
73842;BME280;62184;52.006;5.924;2023-12-14T06:16:38;100745.22;;;11.12;85.01
73842;BME280;62184;52.006;5.924;2023-12-14T06:19:05;100741.53;;;11.16;84.80
73842;BME280;62184;52.006;5.924;2023-12-14T06:21:31;100744.28;;;11.13;85.15
73842;BME280;62184;52.006;5.924;2023-12-14T06:24:00;100748.72;;;11.14;85.07
73842;BME280;62184;52.006;5.924;2023-12-14T06:26:27;100752.22;;;11.16;85.09
73842;BME280;62184;52.006;5.924;2023-12-14T06:28:54;100763.84;;;11.15;85.13
73842;BME280;62184;52.006;5.924;2023-12-14T06:31:21;100771.00;;;11.13;85.13
73842;BME280;62184;52.006;5.924;2023-12-14T06:33:47;100774.53;;;11.15;85.22
73842;BME280;62184;52.006;5.924;2023-12-14T06:36:15;100781.56;;;11.20;85.07
73842;BME280;62184;52.006;5.924;2023-12-14T06:38:42;100784.19;;;11.21;85.24
73842;BME280;62184;52.006;5.924;2023-12-14T06:41:18;100787.88;;;11.15;85.28
73842;BME280;62184;52.006;5.924;2023-12-14T06:43:44;100795.91;;;11.15;85.15
73842;BME280;62184;52.006;5.924;2023-12-14T06:46:10;100793.09;;;11.22;85.04
73842;BME280;62184;52.006;5.924;2023-12-14T06:48:37;100800.03;;;11.27;85.25
73842;BME280;62184;52.006;5.924;2023-12-14T06:51:04;100802.84;;;11.23;84.99
73842;BME280;62184;52.006;5.924;2023-12-14T06:53:30;100808.28;;;11.20;84.90
73842;BME280;62184;52.006;5.924;2023-12-14T06:55:57;100800.22;;;11.21;85.02
73842;BME280;62184;52.006;5.924;2023-12-14T06:58:26;100802.94;;;11.20;84.86
73842;BME280;62184;52.006;5.924;2023-12-14T07:00:52;100806.63;;;11.14;85.07
73842;BME280;62184;52.006;5.924;2023-12-14T07:03:18;100814.72;;;11.12;84.96
73842;BME280;62184;52.006;5.924;2023-12-14T07:05:45;100816.59;;;11.09;84.75
73842;BME280;62184;52.006;5.924;2023-12-14T07:08:11;100821.28;;;11.01;84.99
73842;BME280;62184;52.006;5.924;2023-12-14T07:10:38;100825.91;;;10.94;84.60
73842;BME280;62184;52.006;5.924;2023-12-14T07:13:07;100826.84;;;10.92;84.48
73842;BME280;62184;52.006;5.924;2023-12-14T07:15:36;100833.88;;;10.96;84.85
73842;BME280;62184;52.006;5.924;2023-12-14T07:18:02;100849.03;;;10.95;84.73
73842;BME280;62184;52.006;5.924;2023-12-14T07:20:29;100850.81;;;10.96;84.89
73842;BME280;62184;52.006;5.924;2023-12-14T07:22:55;100863.19;;;10.99;84.54
73842;BME280;62184;52.006;5.924;2023-12-14T07:25:22;100863.16;;;11.00;84.81
73842;BME280;62184;52.006;5.924;2023-12-14T07:27:48;100871.09;;;11.03;84.83
73842;BME280;62184;52.006;5.924;2023-12-14T07:30:15;100866.50;;;11.08;85.12
73842;BME280;62184;52.006;5.924;2023-12-14T07:32:44;100867.44;;;11.06;84.93
73842;BME280;62184;52.006;5.924;2023-12-14T07:35:10;100861.31;;;11.02;85.04
73842;BME280;62184;52.006;5.924;2023-12-14T07:37:36;100868.53;;;10.99;85.02
73842;BME280;62184;52.006;5.924;2023-12-14T07:40:04;100874.00;;;10.94;84.89
73842;BME280;62184;52.006;5.924;2023-12-14T07:42:31;100876.72;;;10.93;84.89
73842;BME280;62184;52.006;5.924;2023-12-14T07:44:58;100887.38;;;10.94;84.89
73842;BME280;62184;52.006;5.924;2023-12-14T07:47:24;100891.75;;;10.97;84.97
73842;BME280;62184;52.006;5.924;2023-12-14T07:49:53;100887.16;;;11.02;85.12
73842;BME280;62184;52.006;5.924;2023-12-14T07:52:20;100886.25;;;11.03;84.95
73842;BME280;62184;52.006;5.924;2023-12-14T07:54:46;100894.06;;;11.10;85.03
73842;BME280;62184;52.006;5.924;2023-12-14T07:57:12;100902.97;;;11.11;85.06
73842;BME280;62184;52.006;5.924;2023-12-14T07:59:39;100907.41;;;11.12;84.74
73842;BME280;62184;52.006;5.924;2023-12-14T08:02:05;100918.13;;;11.10;84.93
73842;BME280;62184;52.006;5.924;2023-12-14T08:04:32;100920.72;;;11.13;85.05
73842;BME280;62184;52.006;5.924;2023-12-14T08:07:01;100927.06;;;11.09;85.02
73842;BME280;62184;52.006;5.924;2023-12-14T08:09:27;100932.47;;;11.06;84.90
73842;BME280;62184;52.006;5.924;2023-12-14T08:11:53;100938.63;;;11.10;84.90
73842;BME280;62184;52.006;5.924;2023-12-14T08:14:20;100945.56;;;11.17;85.01
73842;BME280;62184;52.006;5.924;2023-12-14T08:16:46;100935.59;;;11.24;84.88
73842;BME280;62184;52.006;5.924;2023-12-14T08:19:13;100949.81;;;11.26;85.04
73842;BME280;62184;52.006;5.924;2023-12-14T08:21:39;100950.56;;;11.31;85.16
73842;BME280;62184;52.006;5.924;2023-12-14T08:24:08;100960.19;;;11.38;84.97
73842;BME280;62184;52.006;5.924;2023-12-14T08:26:35;100955.63;;;11.41;85.12
73842;BME280;62184;52.006;5.924;2023-12-14T08:29:01;100967.91;;;11.48;85.05
73842;BME280;62184;52.006;5.924;2023-12-14T08:31:27;100968.09;;;11.42;85.03
73842;BME280;62184;52.006;5.924;2023-12-14T08:33:54;100967.22;;;11.42;85.12
73842;BME280;62184;52.006;5.924;2023-12-14T08:36:20;100971.66;;;11.43;85.00
73842;BME280;62184;52.006;5.924;2023-12-14T08:38:46;100979.59;;;11.46;84.92
73842;BME280;62184;52.006;5.924;2023-12-14T08:41:16;100983.09;;;11.48;85.08
73842;BME280;62184;52.006;5.924;2023-12-14T08:43:42;100995.59;;;11.47;84.95
73842;BME280;62184;52.006;5.924;2023-12-14T08:46:08;100995.59;;;11.47;85.01
73842;BME280;62184;52.006;5.924;2023-12-14T08:48:35;101008.06;;;11.47;85.00
73842;BME280;62184;52.006;5.924;2023-12-14T08:51:02;101009.91;;;11.46;85.08
73842;BME280;62184;52.006;5.924;2023-12-14T08:53:28;101012.69;;;11.42;85.14
73842;BME280;62184;52.006;5.924;2023-12-14T08:55:55;101015.50;;;11.36;84.86
73842;BME280;62184;52.006;5.924;2023-12-14T08:58:24;101013.81;;;11.32;84.96
73842;BME280;62184;52.006;5.924;2023-12-14T09:00:50;101022.91;;;11.25;85.17
73842;BME280;62184;52.006;5.924;2023-12-14T09:03:16;101019.28;;;11.27;85.20
73842;BME280;62184;52.006;5.924;2023-12-14T09:05:43;101012.94;;;11.31;85.07
73842;BME280;62184;52.006;5.924;2023-12-14T09:08:09;101016.47;;;11.33;85.22
73842;BME280;62184;52.006;5.924;2023-12-14T09:10:36;101035.16;;;11.35;85.34
73842;BME280;62184;52.006;5.924;2023-12-14T09:13:02;101033.38;;;11.34;85.18
73842;BME280;62184;52.006;5.924;2023-12-14T09:15:31;101035.19;;;11.33;85.17
73842;BME280;62184;52.006;5.924;2023-12-14T09:17:57;101035.09;;;11.38;85.26
73842;BME280;62184;52.006;5.924;2023-12-14T09:20:24;101045.69;;;11.41;85.01
73842;BME280;62184;52.006;5.924;2023-12-14T09:22:51;101043.84;;;11.43;85.34
73842;BME280;62184;52.006;5.924;2023-12-14T09:25:18;101041.34;;;11.37;85.14
73842;BME280;62184;52.006;5.924;2023-12-14T09:27:44;101055.69;;;11.33;85.23
73842;BME280;62184;52.006;5.924;2023-12-14T09:30:12;101055.63;;;11.36;85.16
73842;BME280;62184;52.006;5.924;2023-12-14T09:32:42;101059.00;;;11.44;85.25
73842;BME280;62184;52.006;5.924;2023-12-14T09:35:09;101066.00;;;11.48;85.17
73842;BME280;62184;52.006;5.924;2023-12-14T09:37:35;101067.00;;;11.44;85.16
73842;BME280;62184;52.006;5.924;2023-12-14T09:40:02;101068.91;;;11.39;85.20
73842;BME280;62184;52.006;5.924;2023-12-14T09:42:36;101085.84;;;11.39;85.15
73842;BME280;62184;52.006;5.924;2023-12-14T09:45:06;101084.84;;;11.43;85.17
73842;BME280;62184;52.006;5.924;2023-12-14T09:47:34;101078.41;;;11.52;85.35
73842;BME280;62184;52.006;5.924;2023-12-14T09:50:04;101088.88;;;11.61;85.11
73842;BME280;62184;52.006;5.924;2023-12-14T09:52:32;101087.97;;;11.62;85.35
73842;BME280;62184;52.006;5.924;2023-12-14T09:54:58;101080.75;;;11.64;85.52
73842;BME280;62184;52.006;5.924;2023-12-14T09:57:25;101099.34;;;11.70;85.48
73842;BME280;62184;52.006;5.924;2023-12-14T09:59:52;101094.81;;;11.72;85.33
73842;BME280;62184;52.006;5.924;2023-12-14T10:02:20;101097.50;;;11.72;85.23
73842;BME280;62184;52.006;5.924;2023-12-14T10:04:51;101105.50;;;11.72;85.26
73842;BME280;62184;52.006;5.924;2023-12-14T10:07:20;101106.28;;;11.77;85.35
73842;BME280;62184;52.006;5.924;2023-12-14T10:09:47;101114.13;;;11.85;85.46
73842;BME280;62184;52.006;5.924;2023-12-14T10:12:14;101123.78;;;11.90;85.36
73842;BME280;62184;52.006;5.924;2023-12-14T10:14:40;101129.03;;;11.95;85.53
73842;BME280;62184;52.006;5.924;2023-12-14T10:17:18;101129.75;;;12.02;85.42
73842;BME280;62184;52.006;5.924;2023-12-14T10:19:46;101137.75;;;12.03;85.43
73842;BME280;62184;52.006;5.924;2023-12-14T10:22:14;101146.66;;;12.04;85.61
73842;BME280;62184;52.006;5.924;2023-12-14T10:24:45;101146.66;;;12.04;85.33
73842;BME280;62184;52.006;5.924;2023-12-14T10:27:14;101143.13;;;12.02;85.35
73842;BME280;62184;52.006;5.924;2023-12-14T10:29:41;101148.56;;;11.99;85.46
73842;BME280;62184;52.006;5.924;2023-12-14T10:32:07;101136.06;;;11.99;85.29
73842;BME280;62184;52.006;5.924;2023-12-14T10:34:34;101138.66;;;12.02;85.33
73842;BME280;62184;52.006;5.924;2023-12-14T10:37:01;101143.97;;;12.04;85.22
73842;BME280;62184;52.006;5.924;2023-12-14T10:39:32;101154.59;;;12.07;85.50
73842;BME280;62184;52.006;5.924;2023-12-14T10:42:03;101156.38;;;12.06;85.22
73842;BME280;62184;52.006;5.924;2023-12-14T10:44:35;101159.03;;;12.08;85.28
73842;BME280;62184;52.006;5.924;2023-12-14T10:47:03;101159.81;;;12.13;85.31
73842;BME280;62184;52.006;5.924;2023-12-14T10:49:33;101161.69;;;12.09;85.12
73842;BME280;62184;52.006;5.924;2023-12-14T10:52:02;101166.28;;;12.04;85.39
73842;BME280;62184;52.006;5.924;2023-12-14T10:54:32;101166.19;;;12.07;85.36
73842;BME280;62184;52.006;5.924;2023-12-14T10:57:06;101167.84;;;12.13;85.24
73842;BME280;62184;52.006;5.924;2023-12-14T10:59:32;101163.28;;;12.18;85.37
73842;BME280;62184;52.006;5.924;2023-12-14T11:02:06;101161.34;;;12.23;85.38
73842;BME280;62184;52.006;5.924;2023-12-14T11:04:53;101153.31;;;12.23;85.43
73842;BME280;62184;52.006;5.924;2023-12-14T11:10:21;101164.00;;;12.23;85.52
73842;BME280;62184;52.006;5.924;2023-12-14T11:12:56;101165.91;;;12.19;85.42
73842;BME280;62184;52.006;5.924;2023-12-14T11:15:25;101169.38;;;12.23;85.53
73842;BME280;62184;52.006;5.924;2023-12-14T11:18:25;101176.53;;;12.22;85.54
73842;BME280;62184;52.006;5.924;2023-12-14T11:20:56;101192.47;;;12.28;85.41
73842;BME280;62184;52.006;5.924;2023-12-14T11:23:32;101195.28;;;12.22;85.29
73842;BME280;62184;52.006;5.924;2023-12-14T11:26:00;101202.47;;;12.22;85.55
73842;BME280;62184;52.006;5.924;2023-12-14T11:28:32;101204.13;;;12.26;85.34
73842;BME280;62184;52.006;5.924;2023-12-14T11:31:00;101182.63;;;12.29;85.54
73842;BME280;62184;52.006;5.924;2023-12-14T11:33:27;101184.31;;;12.32;85.54
73842;BME280;62184;52.006;5.924;2023-12-14T11:35:54;101194.00;;;12.37;85.56
73842;BME280;62184;52.006;5.924;2023-12-14T11:38:20;101205.47;;;12.42;85.61
73842;BME280;62184;52.006;5.924;2023-12-14T11:40:47;101213.41;;;12.47;85.69
73842;BME280;62184;52.006;5.924;2023-12-14T11:43:14;101214.34;;;12.44;85.36
73842;BME280;62184;52.006;5.924;2023-12-14T11:45:43;101214.44;;;12.41;85.60
73842;BME280;62184;52.006;5.924;2023-12-14T11:48:10;101214.47;;;12.40;85.75
73842;BME280;62184;52.006;5.924;2023-12-14T11:50:38;101223.47;;;12.37;85.67
73842;BME280;62184;52.006;5.924;2023-12-14T11:53:07;101219.03;;;12.36;85.61
73842;BME280;62184;52.006;5.924;2023-12-14T11:55:36;101219.09;;;12.33;85.30
73842;BME280;62184;52.006;5.924;2023-12-14T11:58:04;101227.97;;;12.37;85.46
73842;BME280;62184;52.006;5.924;2023-12-14T12:00:34;101234.06;;;12.42;85.59
73842;BME280;62184;52.006;5.924;2023-12-14T12:03:11;101235.97;;;12.38;85.63
73842;BME280;62184;52.006;5.924;2023-12-14T12:05:40;101237.94;;;12.30;85.45
73842;BME280;62184;52.006;5.924;2023-12-14T12:08:08;101238.06;;;12.25;85.34
73842;BME280;62184;52.006;5.924;2023-12-14T12:10:35;101216.66;;;12.24;85.31
73842;BME280;62184;52.006;5.924;2023-12-14T12:13:03;101209.31;;;12.32;85.75
73842;BME280;62184;52.006;5.924;2023-12-14T12:15:31;101209.16;;;12.38;85.56
73842;BME280;62184;52.006;5.924;2023-12-14T12:17:58;101214.34;;;12.44;86.09
73842;BME280;62184;52.006;5.924;2023-12-14T12:20:27;101223.16;;;12.48;85.72
73842;BME280;62184;52.006;5.924;2023-12-14T12:22:53;101226.50;;;12.57;85.99
73842;BME280;62184;52.006;5.924;2023-12-14T12:25:20;101217.44;;;12.63;85.97
73842;BME280;62184;52.006;5.924;2023-12-14T12:27:46;101228.97;;;12.65;85.92
73842;BME280;62184;52.006;5.924;2023-12-14T12:30:13;101234.44;;;12.62;85.81
73842;BME280;62184;52.006;5.924;2023-12-14T12:32:39;101241.66;;;12.58;85.71
73842;BME280;62184;52.006;5.924;2023-12-14T12:35:07;101237.25;;;12.56;85.47
73842;BME280;62184;52.006;5.924;2023-12-14T12:37:36;101232.84;;;12.55;85.77
73842;BME280;62184;52.006;5.924;2023-12-14T12:40:03;101232.88;;;12.53;85.67
73842;BME280;62184;52.006;5.924;2023-12-14T12:42:33;101224.66;;;12.59;85.96
73842;BME280;62184;52.006;5.924;2023-12-14T12:44:59;101238.66;;;12.71;86.23
73842;BME280;62184;52.006;5.924;2023-12-14T12:47:26;101242.84;;;12.81;86.09
73842;BME280;62184;52.006;5.924;2023-12-14T12:49:52;101247.13;;;12.88;85.95
73842;BME280;62184;52.006;5.924;2023-12-14T12:52:19;101243.38;;;12.93;86.26
73842;BME280;62184;52.006;5.924;2023-12-14T12:54:48;101250.53;;;12.93;86.10